Time;durP1;ratioP1;P1;durP2;ratioP2;P2;SDS_P1;SDS_P2;PMS_P1;PMS_P2;Temp;Humidity;BMP_temperature;BMP_pressure;BME280_temperature;BME280_humidity;BME280_pressure;Samples;Min_cycle;Max_cycle;Signal;HPM_P1;HPM_P2
2023/11/02 00:01:37;;;;;;;3.42;0.85;;;;;;;19.50;53.60;99020.59;5026861;28;20060;-72
2023/11/02 00:04:03;;;;;;;2.08;0.95;;;;;;;19.50;54.02;99004.75;5026913;28;20466;-72
2023/11/02 00:06:36;;;;;;;2.42;0.85;;;;;;;19.48;53.96;98998.81;5026289;28;20029;-72
2023/11/02 00:09:05;;;;;;;2.50;0.80;;;;;;;19.49;53.91;98982.81;5025251;28;20132;-72
2023/11/02 00:11:48;;;;;;;2.92;0.80;;;;;;;19.48;53.93;98975.06;5023940;28;20088;-72
2023/11/02 00:14:13;;;;;;;2.90;0.80;;;;;;;19.47;53.70;98968.13;5025637;28;20066;-72
2023/11/02 00:16:38;;;;;;;2.58;0.88;;;;;;;19.47;53.66;98965.47;5026090;28;20025;-72
2023/11/02 00:19:05;;;;;;;5.57;1.00;;;;;;;19.47;53.87;98949.63;5025910;28;20057;-72
2023/11/02 00:21:32;;;;;;;2.33;0.80;;;;;;;19.45;53.74;98947.16;5025702;28;20032;-73
2023/11/02 00:23:57;;;;;;;2.25;0.85;;;;;;;19.45;53.67;98943.72;5025753;28;20042;-72
2023/11/02 00:26:24;;;;;;;2.67;0.88;;;;;;;19.44;53.93;98934.13;5026396;28;20040;-73
2023/11/02 00:28:50;;;;;;;3.83;0.90;;;;;;;19.43;53.59;98933.31;5025887;28;20056;-71
2023/11/02 00:31:16;;;;;;;2.33;0.73;;;;;;;19.44;53.53;98921.75;5025567;28;20056;-72
2023/11/02 00:33:42;;;;;;;2.60;1.15;;;;;;;19.43;53.79;98911.38;5025666;28;20041;-73
2023/11/02 00:36:07;;;;;;;3.00;0.82;;;;;;;19.41;53.41;98898.34;5025522;28;20536;-72
2023/11/02 00:38:34;;;;;;;4.05;0.90;;;;;;;19.43;53.59;98884.97;5026175;28;20153;-72
2023/11/02 00:40:59;;;;;;;1.95;0.85;;;;;;;19.40;53.39;98867.63;5025955;28;20117;-72
2023/11/02 00:43:26;;;;;;;2.25;0.90;;;;;;;19.41;53.37;98877.22;5025501;28;20109;-72
2023/11/02 00:45:52;;;;;;;2.90;0.80;;;;;;;19.40;53.45;98870.28;5025483;28;20065;-73
2023/11/02 00:48:26;;;;;;;3.00;1.10;;;;;;;19.38;53.40;98865.19;5025633;28;20037;-71
2023/11/02 00:51:00;;;;;;;2.42;0.93;;;;;;;19.39;53.31;98863.34;5025822;28;20025;-72
2023/11/02 00:53:25;;;;;;;;;;;;;;;19.42;53.24;98848.97;5025973;28;21005;-71
2023/11/02 00:55:51;;;;;;;2.75;0.90;;;;;;;19.43;53.09;98847.97;5025752;28;20556;-71
2023/11/02 00:58:26;;;;;;;2.95;0.82;;;;;;;19.38;53.11;98848.53;5025553;28;20037;-71
2023/11/02 01:01:03;;;;;;;3.35;0.80;;;;;;;19.36;53.25;98838.13;5025313;28;20199;-71
2023/11/02 01:03:28;;;;;;;3.03;0.90;;;;;;;19.36;53.24;98819.66;5026069;28;20061;-72
2023/11/02 01:05:53;;;;;;;3.05;0.93;;;;;;;19.36;53.24;98824.13;5026488;28;20095;-71
2023/11/02 01:08:28;;;;;;;1.85;0.60;;;;;;;19.34;53.09;98811.09;5026148;28;20021;-71
2023/11/02 01:10:53;;;;;;;2.67;0.80;;;;;;;19.34;53.30;98799.69;5026116;28;20053;-72
2023/11/02 01:13:19;;;;;;;1.75;0.70;;;;;;;19.32;53.34;98786.66;5026477;28;20107;-72
2023/11/02 01:16:00;;;;;;;2.50;0.85;;;;;;;19.34;53.05;98779.41;5026168;28;20025;-71
2023/11/02 01:18:26;;;;;;;2.97;0.82;;;;;;;19.34;53.34;98778.56;5026480;28;20378;-71
2023/11/02 01:21:05;;;;;;;1.98;0.80;;;;;;;19.29;53.30;98779.09;5029278;28;20044;-72
2023/11/02 01:23:33;;;;;;;2.65;0.85;;;;;;;19.31;53.24;98763.06;5030321;28;20104;-72
2023/11/02 01:26:01;;;;;;;2.33;0.70;;;;;;;19.29;53.24;98751.88;5030133;28;20025;-71
2023/11/02 01:28:56;;;;;;;2.65;0.80;;;;;;;19.29;53.36;98762.44;5029957;28;20120;-72
2023/11/02 01:31:22;;;;;;;2.47;0.70;;;;;;;19.32;53.27;98743.59;5012108;28;20453;-72
2023/11/02 01:34:01;;;;;;;2.15;0.70;;;;;;;19.28;53.30;98735.22;5029755;28;20085;-71
2023/11/02 01:36:35;;;;;;;3.53;0.82;;;;;;;19.28;53.14;98726.47;5028910;28;20033;-72
2023/11/02 01:39:09;;;;;;;2.58;0.70;;;;;;;19.28;53.19;98710.63;5029030;28;20366;-72
2023/11/02 01:41:40;;;;;;;;;;;;;;;19.32;53.35;98704.78;5028870;28;20057;-72
2023/11/02 01:44:17;;;;;;;2.60;0.80;;;;;;;19.31;53.14;98686.47;5029030;28;20000;-72
2023/11/02 01:46:42;;;;;;;2.40;0.90;;;;;;;19.31;53.29;98668.00;5028919;28;20061;-73
2023/11/02 01:49:20;;;;;;;2.27;0.67;;;;;;;19.27;53.16;98651.72;5029201;28;20067;-73
2023/11/02 01:52:04;;;;;;;3.17;0.80;;;;;;;19.26;53.08;98636.06;5029609;28;20028;-73
2023/11/02 01:55:00;;;;;;;2.97;0.80;;;;;;;19.25;53.22;98619.41;5029722;28;20080;-73
2023/11/02 01:57:53;;;;;;;2.83;0.90;;;;;;;19.25;53.04;98592.16;5029509;28;20037;-73
2023/11/02 02:00:29;;;;;;;3.65;1.02;;;;;;;19.25;53.36;98581.59;5029076;28;20037;-70
2023/11/02 02:03:08;;;;;;;2.28;0.70;;;;;;;19.24;53.06;98557.00;5029500;28;20029;-71
2023/11/02 02:05:55;;;;;;;2.60;0.80;;;;;;;19.23;53.22;98547.44;5028000;28;20037;-70
2023/11/02 02:08:35;;;;;;;2.22;0.70;;;;;;;19.23;53.03;98518.41;5029011;28;20183;-72
2023/11/02 02:11:53;;;;;;;2.35;0.77;;;;;;;19.21;53.33;98507.22;5029071;28;20037;-73
2023/11/02 02:14:32;;;;;;;2.42;0.70;;;;;;;19.22;53.09;98493.03;5028998;28;20425;-73
2023/11/02 02:17:18;;;;;;;2.75;0.77;;;;;;;19.21;52.98;98478.16;5028766;28;20091;-73
2023/11/02 02:19:51;;;;;;;3.58;0.80;;;;;;;19.21;53.17;98462.34;5028914;28;20478;-72
2023/11/02 02:22:21;;;;;;;1.95;0.60;;;;;;;19.19;53.32;98464.34;5028816;28;20503;-73
2023/11/02 02:24:57;;;;;;;2.22;0.73;;;;;;;19.19;52.98;98449.31;5029027;28;20381;-72
2023/11/02 02:27:47;;;;;;;2.05;0.70;;;;;;;19.18;53.14;98441.59;5028669;28;20080;-72
2023/11/02 02:30:21;;;;;;;1.48;0.60;;;;;;;19.18;53.09;98426.59;5029001;28;20042;-73
2023/11/02 02:33:01;;;;;;;3.72;0.98;;;;;;;19.18;53.16;98405.47;5027438;28;20025;-73
2023/11/02 02:35:38;;;;;;;2.47;0.70;;;;;;;19.19;53.21;98396.50;5028499;28;20045;-72
2023/11/02 02:38:06;;;;;;;2.55;0.73;;;;;;;19.19;53.23;98382.50;5027785;28;20029;-72
2023/11/02 02:40:39;;;;;;;2.30;0.73;;;;;;;19.16;53.10;98365.22;5028024;28;20091;-72
2023/11/02 02:43:06;;;;;;;2.50;0.60;;;;;;;19.17;53.05;98374.78;5027915;28;20488;-72
2023/11/02 02:45:36;;;;;;;3.63;0.90;;;;;;;19.18;53.12;98357.09;5027653;28;20462;-72
2023/11/02 02:48:03;;;;;;;3.40;0.90;;;;;;;19.16;52.96;98330.88;5027500;28;20415;-73
2023/11/02 02:50:30;;;;;;;3.33;0.90;;;;;;;19.17;52.98;98335.16;5028078;28;20029;-72
2023/11/02 02:53:00;;;;;;;2.67;0.80;;;;;;;19.14;53.04;98317.06;5028419;28;20038;-72
2023/11/02 02:55:28;;;;;;;2.55;0.73;;;;;;;19.14;53.15;98288.03;5028425;28;20038;-73
2023/11/02 02:57:56;;;;;;;3.38;0.73;;;;;;;19.14;53.30;98266.91;5028323;28;20025;-72
2023/11/02 03:00:24;;;;;;;2.45;0.75;;;;;;;19.15;53.12;98243.97;5028347;28;20385;-73
2023/11/02 03:02:52;;;;;;;2.30;0.65;;;;;;;19.15;53.26;98225.47;5028264;28;20029;-72
2023/11/02 03:05:19;;;;;;;3.10;1.08;;;;;;;19.14;53.16;98208.84;5028387;28;20032;-72
2023/11/02 03:07:47;;;;;;;2.63;0.73;;;;;;;19.12;52.99;98224.06;5028354;28;20116;-73
2023/11/02 03:10:15;;;;;;;2.15;0.80;;;;;;;19.13;52.94;98219.59;5028315;28;20108;-73
2023/11/02 03:12:42;;;;;;;2.60;0.90;;;;;;;19.13;52.81;98209.03;5027962;28;20033;-72
2023/11/02 03:15:09;;;;;;;2.03;0.60;;;;;;;19.13;52.72;98164.94;5028123;28;20056;-73
2023/11/02 03:17:59;;;;;;;1.35;0.63;;;;;;;19.11;52.95;98119.47;5027899;28;20037;-73
2023/11/02 03:20:26;;;;;;;1.98;0.60;;;;;;;19.13;53.00;98104.22;5027049;28;20108;-72
2023/11/02 03:22:52;;;;;;;4.20;0.70;;;;;;;19.11;52.90;98081.69;5027288;28;20044;-72
2023/11/02 03:25:37;;;;;;;1.95;0.68;;;;;;;19.11;53.02;98160.91;5026979;28;20041;-72
2023/11/02 03:28:53;;;;;;;1.83;0.70;;;;;;;19.12;52.99;98202.94;5026752;28;20022;-71
2023/11/02 03:31:41;;;;;;;1.90;0.65;;;;;;;19.12;52.83;98223.22;4993206;28;20041;-72
2023/11/02 03:34:15;;;;;;;2.38;0.90;;;;;;;19.12;52.77;98223.22;5026419;28;20505;-72
2023/11/02 03:36:43;;;;;;;2.08;0.70;;;;;;;19.12;52.71;98208.22;5027101;28;20047;-73
2023/11/02 03:39:19;;;;;;;2.35;0.70;;;;;;;19.10;52.73;98181.19;5027151;28;20033;-74
2023/11/02 03:41:44;;;;;;;2.20;0.63;;;;;;;19.10;52.70;98146.88;5026800;28;20068;-72
2023/11/02 03:44:35;;;;;;;2.90;0.83;;;;;;;19.09;52.77;98108.28;5026478;28;20065;-71
2023/11/02 03:47:39;;;;;;;3.70;1.00;;;;;;;19.08;52.71;98088.19;5026901;28;20615;-71
2023/11/02 03:50:14;;;;;;;2.42;0.70;;;;;;;19.06;52.66;98090.22;5026926;28;20061;-72
2023/11/02 03:53:11;;;;;;;0.93;0.50;;;;;;;19.07;52.66;98064.63;5026833;28;20088;-72
2023/11/02 03:56:13;;;;;;;2.35;0.60;;;;;;;19.06;52.73;98037.41;5027531;28;20057;-72
2023/11/02 03:58:54;;;;;;;3.25;0.82;;;;;;;19.05;52.80;98006.75;5026919;28;20029;-72
2023/11/02 04:01:52;;;;;;;2.08;0.63;;;;;;;19.05;52.73;97956.59;5027197;28;20025;-72
2023/11/02 04:04:39;;;;;;;2.72;0.60;;;;;;;19.04;52.59;97949.69;5021432;28;20046;-71
2023/11/02 04:07:20;;;;;;;2.30;0.70;;;;;;;19.05;52.63;97953.97;5026980;28;20390;-72
2023/11/02 04:09:53;;;;;;;2.58;0.65;;;;;;;19.02;52.58;97943.81;5026704;28;20029;-71
2023/11/02 04:12:32;;;;;;;2.20;0.80;;;;;;;19.03;52.52;97948.06;5027253;28;20025;-72
2023/11/02 04:15:00;;;;;;;2.70;0.73;;;;;;;19.03;52.64;97963.91;5027120;28;20033;-71
2023/11/02 04:17:26;;;;;;;1.88;0.65;;;;;;;19.05;52.29;97982.19;5026964;28;20041;-71
2023/11/02 04:19:52;;;;;;;2.88;0.70;;;;;;;19.02;52.47;97962.28;5026886;28;20040;-72
2023/11/02 04:22:17;;;;;;;3.30;0.65;;;;;;;19.05;52.42;97942.59;5026897;28;20369;-72
2023/11/02 04:24:43;;;;;;;3.03;0.70;;;;;;;19.03;52.17;97908.50;5026825;28;20037;-71
2023/11/02 04:27:09;;;;;;;2.53;0.90;;;;;;;19.03;52.46;97898.72;5026951;28;20028;-71
2023/11/02 04:29:34;;;;;;;1.50;0.60;;;;;;;19.03;52.53;97895.28;5026687;28;20118;-72
2023/11/02 04:32:00;;;;;;;3.20;0.82;;;;;;;19.02;52.55;97891.81;5026516;28;20029;-71
2023/11/02 04:34:25;;;;;;;2.38;0.75;;;;;;;19.03;52.54;97874.19;5026819;28;20053;-71
2023/11/02 04:36:50;;;;;;;1.17;0.60;;;;;;;19.00;52.40;97864.81;5026960;28;20029;-72
2023/11/02 04:39:15;;;;;;;0.73;0.47;;;;;;;19.00;52.26;97859.53;5026633;28;20034;-71
2023/11/02 04:41:41;;;;;;;1.40;0.73;;;;;;;19.02;52.21;97843.50;5026739;28;20258;-71
2023/11/02 04:44:06;;;;;;;1.85;0.60;;;;;;;19.00;52.32;97827.06;5026503;28;20527;-72
2023/11/02 04:46:31;;;;;;;2.78;0.75;;;;;;;19.01;52.31;97848.00;5026536;28;20108;-71
2023/11/02 04:48:57;;;;;;;1.83;0.60;;;;;;;19.00;52.23;97837.63;5026323;28;20042;-72
2023/11/02 04:51:22;;;;;;;3.60;0.80;;;;;;;19.01;52.32;97831.34;5026385;28;20057;-72
2023/11/02 04:53:47;;;;;;;1.63;0.70;;;;;;;18.99;52.18;97813.06;5025910;28;20053;-71
2023/11/02 04:56:16;;;;;;;1.95;0.60;;;;;;;18.99;52.19;97813.06;5026598;28;20593;-72
2023/11/02 04:58:42;;;;;;;1.90;0.65;;;;;;;18.98;52.21;97794.81;5026437;28;20024;-72
2023/11/02 05:01:07;;;;;;;1.63;0.73;;;;;;;18.98;51.85;97785.06;5026324;28;20041;-71
2023/11/02 05:03:32;;;;;;;1.40;0.60;;;;;;;18.99;51.85;97788.50;5026238;28;20266;-72
2023/11/02 05:05:57;;;;;;;2.40;0.80;;;;;;;18.97;52.14;97770.22;5026206;28;20317;-72
2023/11/02 05:08:23;;;;;;;2.83;0.70;;;;;;;18.98;51.93;97789.53;5025593;28;20254;-72
2023/11/02 05:10:48;;;;;;;2.72;0.80;;;;;;;18.98;52.06;97800.88;5025704;28;20025;-72
2023/11/02 05:13:14;;;;;;;2.10;0.70;;;;;;;18.97;51.99;97796.63;5025252;28;20022;-71
2023/11/02 05:15:39;;;;;;;2.42;0.63;;;;;;;18.97;51.90;97767.59;5025713;28;20030;-72
2023/11/02 05:18:04;;;;;;;2.80;0.65;;;;;;;18.98;51.87;97763.94;5025970;28;20463;-72
2023/11/02 05:20:30;;;;;;;1.73;0.50;;;;;;;18.95;51.86;97756.44;5026194;28;20040;-72
2023/11/02 05:22:55;;;;;;;1.70;0.60;;;;;;;18.98;51.87;97771.06;5027249;28;20076;-71
2023/11/02 05:25:20;;;;;;;2.13;0.60;;;;;;;18.95;51.84;97751.16;5026786;28;20513;-73
2023/11/02 05:27:45;;;;;;;2.00;0.55;;;;;;;18.97;51.87;97748.31;5027105;28;20037;-71
2023/11/02 05:30:11;;;;;;;1.27;0.60;;;;;;;18.95;51.93;97745.88;5026769;28;20033;-73
2023/11/02 05:32:38;;;;;;;1.75;0.60;;;;;;;18.95;51.76;97731.88;5026798;28;20048;-72
2023/11/02 05:35:04;;;;;;;2.45;0.80;;;;;;;18.95;51.52;97734.50;5026244;28;20177;-72
2023/11/02 05:37:29;;;;;;;2.28;0.63;;;;;;;18.94;51.69;97717.06;5029154;28;20160;-72
2023/11/02 05:39:54;;;;;;;2.87;0.90;;;;;;;18.95;51.79;97718.69;5026863;28;20065;-72
2023/11/02 05:42:19;;;;;;;1.95;0.70;;;;;;;18.93;51.60;97707.50;5025829;28;20261;-72
2023/11/02 05:44:45;;;;;;;1.92;0.68;;;;;;;18.94;51.83;97703.84;5025953;28;20116;-72
2023/11/02 05:47:10;;;;;;;1.02;0.55;;;;;;;18.93;51.78;97684.59;5025894;28;20485;-72
2023/11/02 05:49:35;;;;;;;2.53;0.70;;;;;;;18.94;51.97;97688.81;5025627;28;20083;-72
2023/11/02 05:52:00;;;;;;;2.65;0.80;;;;;;;18.93;51.96;97689.88;5026128;28;20025;-72
2023/11/02 05:54:26;;;;;;;1.63;0.57;;;;;;;18.93;51.84;97687.22;5025784;28;20032;-73
2023/11/02 05:56:51;;;;;;;1.20;0.50;;;;;;;18.93;52.00;97679.31;5025801;28;20259;-72
2023/11/02 05:59:17;;;;;;;1.30;0.47;;;;;;;18.92;51.90;97676.88;5025455;28;20544;-73
2023/11/02 06:01:44;;;;;;;2.13;0.60;;;;;;;18.92;51.70;97667.13;5026309;28;20250;-72
2023/11/02 06:04:09;;;;;;;1.63;0.60;;;;;;;18.92;51.84;97671.59;5040846;28;20611;-73
2023/11/02 06:06:35;;;;;;;2.88;0.63;;;;;;;18.90;51.64;97666.53;5025632;28;20041;-72
2023/11/02 06:09:00;;;;;;;2.58;0.70;;;;;;;18.89;51.72;97670.16;5028655;28;20030;-73
2023/11/02 06:11:26;;;;;;;2.33;0.57;;;;;;;18.91;51.91;97677.88;5029237;28;20103;-72
2023/11/02 06:13:51;;;;;;;1.77;0.73;;;;;;;18.90;51.85;97665.69;5028885;28;20429;-73
2023/11/02 06:16:16;;;;;;;2.55;0.60;;;;;;;18.90;51.81;97660.41;5029076;28;20044;-72
2023/11/02 06:18:43;;;;;;;1.55;0.55;;;;;;;18.88;51.75;97652.69;5028835;28;20087;-72
2023/11/02 06:21:09;;;;;;;1.98;0.60;;;;;;;18.89;51.85;97658.81;5028825;28;20048;-72
2023/11/02 06:23:34;;;;;;;1.55;0.57;;;;;;;18.90;52.04;97666.53;5028997;28;20442;-72
2023/11/02 06:26:00;;;;;;;2.22;0.80;;;;;;;18.90;52.19;97652.50;5029271;28;20108;-72
2023/11/02 06:28:25;;;;;;;2.67;0.60;;;;;;;18.89;52.15;97654.34;5028904;28;20457;-71
2023/11/02 06:30:51;;;;;;;2.95;0.70;;;;;;;18.89;52.40;97642.97;5028938;28;20025;-72
2023/11/02 06:33:25;;;;;;;2.25;0.70;;;;;;;18.88;52.56;97638.72;5028478;28;20054;-72
2023/11/02 06:35:51;;;;;;;2.83;0.60;;;;;;;18.85;52.58;97624.13;5028848;28;20084;-72
2023/11/02 06:38:18;;;;;;;2.22;0.60;;;;;;;18.85;52.60;97613.56;5027720;28;20478;-72
2023/11/02 06:40:43;;;;;;;2.13;0.57;;;;;;;18.87;52.66;97608.06;5027732;28;20507;-72
2023/11/02 06:43:09;;;;;;;2.22;0.50;;;;;;;18.85;53.06;97593.25;5027605;28;20033;-72
2023/11/02 06:45:34;;;;;;;1.98;0.60;;;;;;;18.86;52.97;97591.44;5027596;28;20492;-73
2023/11/02 06:47:59;;;;;;;2.75;1.00;;;;;;;18.83;53.14;97582.09;5027309;28;20067;-72
2023/11/02 06:50:25;;;;;;;1.63;0.60;;;;;;;18.82;53.05;97564.63;5027744;28;20474;-71
2023/11/02 06:52:50;;;;;;;2.05;0.60;;;;;;;18.83;53.35;97555.69;5028189;28;20033;-72
2023/11/02 06:55:15;;;;;;;2.10;0.60;;;;;;;18.87;53.23;97544.72;5028409;28;20053;-72
2023/11/02 06:57:41;;;;;;;3.00;0.52;;;;;;;18.85;53.11;97527.31;5028222;28;20029;-73
2023/11/02 07:00:09;;;;;;;1.52;0.60;;;;;;;18.88;53.18;97519.97;5028015;28;20025;-72
2023/11/02 07:02:37;;;;;;;2.47;0.60;;;;;;;18.88;53.18;97507.59;5027871;28;20367;-72
2023/11/02 07:05:05;;;;;;;1.40;0.50;;;;;;;18.88;53.18;97526.06;5028582;28;20047;-72
2023/11/02 07:07:35;;;;;;;2.53;0.68;;;;;;;18.91;53.15;97512.44;5027406;28;20028;-72
2023/11/02 07:10:04;;;;;;;1.23;0.40;;;;;;;18.92;53.22;97511.44;5024631;28;20038;-73
2023/11/02 07:12:30;;;;;;;1.88;0.47;;;;;;;18.94;53.42;97511.22;5025964;28;20068;-73
2023/11/02 07:14:55;;;;;;;1.88;0.55;;;;;;;18.96;53.17;97504.72;5027225;28;20072;-70
2023/11/02 07:17:22;;;;;;;0.98;0.50;;;;;;;18.95;53.23;97495.19;5026667;28;20033;-71
2023/11/02 07:19:47;;;;;;;1.98;0.57;;;;;;;18.97;53.42;97493.13;5027148;28;20229;-74
2023/11/02 07:22:13;;;;;;;2.83;0.73;;;;;;;19.01;53.49;97494.34;5027503;28;20039;-72
2023/11/02 07:24:38;;;;;;;1.42;0.52;;;;;;;19.00;53.44;97482.16;5027629;28;20060;-72
2023/11/02 07:27:04;;;;;;;7.47;0.60;;;;;;;19.01;53.61;97469.81;5027901;28;20025;-73
2023/11/02 07:29:29;;;;;;;2.60;0.60;;;;;;;19.02;53.86;97464.28;5027417;28;20453;-72
2023/11/02 07:31:54;;;;;;;3.43;0.77;;;;;;;19.05;53.71;97457.78;5028027;28;20068;-73
2023/11/02 07:34:19;;;;;;;1.95;0.60;;;;;;;19.03;53.84;97449.28;5027587;28;20788;-73
2023/11/02 07:36:45;;;;;;;2.22;1.00;;;;;;;19.05;53.91;97463.06;5027417;28;20029;-73
2023/11/02 07:39:10;;;;;;;5.55;0.93;;;;;;;19.06;53.96;97446.22;5026801;28;20025;-72
2023/11/02 07:41:35;;;;;;;1.52;0.70;;;;;;;19.05;53.84;97449.88;5027105;28;20461;-71
2023/11/02 07:44:01;;;;;;;1.60;0.50;;;;;;;19.08;54.21;97449.44;5042016;28;20055;-72
2023/11/02 07:46:26;;;;;;;3.05;0.65;;;;;;;19.09;53.96;97442.31;5027189;28;20257;-71
2023/11/02 07:48:52;;;;;;;2.35;0.80;;;;;;;19.08;54.26;97424.88;5026928;28;20025;-72
2023/11/02 07:51:17;;;;;;;2.53;0.80;;;;;;;19.09;54.29;97429.94;5027171;28;20382;-72
2023/11/02 07:53:43;;;;;;;3.33;0.70;;;;;;;19.13;54.32;97409.22;5027529;28;20029;-71
2023/11/02 07:56:11;;;;;;;2.58;0.50;;;;;;;19.10;54.34;97399.09;5027387;28;20037;-71
2023/11/02 07:58:42;;;;;;;1.42;0.55;;;;;;;19.13;54.33;97415.28;5027027;28;20486;-72
2023/11/02 08:01:07;;;;;;;0.90;0.40;;;;;;;19.12;54.25;97392.56;5027520;28;20073;-72
2023/11/02 08:03:32;;;;;;;4.25;0.75;;;;;;;19.13;54.48;97401.28;5027116;28;20140;-71
2023/11/02 08:05:58;;;;;;;4.00;0.80;;;;;;;19.13;54.48;97402.09;5026763;28;20447;-72
2023/11/02 08:08:24;;;;;;;2.43;0.60;;;;;;;19.15;54.46;97407.16;5022713;28;20297;-74
2023/11/02 08:10:50;;;;;;;1.58;0.55;;;;;;;19.17;53.99;97405.94;5023885;28;20281;-75
2023/11/02 08:13:15;;;;;;;3.70;0.73;;;;;;;19.23;53.82;97406.09;5024985;28;20116;-75
2023/11/02 08:15:44;;;;;;;3.53;0.70;;;;;;;19.24;54.01;97405.06;5025648;28;20116;-74
2023/11/02 08:18:10;;;;;;;3.47;0.73;;;;;;;19.21;53.92;97380.72;5025423;28;20036;-74
2023/11/02 08:20:36;;;;;;;2.50;0.50;;;;;;;19.23;54.16;97391.06;5025802;28;20133;-73
2023/11/02 08:23:01;;;;;;;3.33;0.80;;;;;;;19.20;54.51;97392.31;5024059;28;20120;-73
2023/11/02 08:25:27;;;;;;;2.70;0.70;;;;;;;19.21;54.39;97372.78;5025272;28;20041;-74
2023/11/02 08:27:57;;;;;;;2.75;0.57;;;;;;;19.23;54.17;97384.97;5026583;28;20507;-75
2023/11/02 08:30:29;;;;;;;2.60;1.10;;;;;;;19.23;54.18;97385.78;5023889;28;20465;-71
2023/11/02 08:32:55;;;;;;;3.17;0.70;;;;;;;19.28;53.90;97377.22;5023454;28;20489;-71
2023/11/02 08:35:21;;;;;;;2.35;0.80;;;;;;;19.30;53.74;97372.53;5025720;28;20033;-70
2023/11/02 08:37:50;;;;;;;1.15;0.45;;;;;;;19.31;53.77;97379.41;5024838;28;20029;-71
2023/11/02 08:40:20;;;;;;;3.63;0.63;;;;;;;19.29;53.94;97374.34;5024520;28;20033;-72
2023/11/02 08:42:47;;;;;;;3.22;0.65;;;;;;;19.27;53.95;97360.56;5025082;28;20025;-72
2023/11/02 08:45:13;;;;;;;3.35;0.50;;;;;;;19.27;53.96;97362.41;5025135;28;20497;-72
2023/11/02 08:47:39;;;;;;;2.58;0.55;;;;;;;19.25;53.97;97360.00;5025333;28;20025;-72
2023/11/02 08:50:06;;;;;;;3.33;0.85;;;;;;;19.25;53.87;97352.06;5024807;28;20029;-71
2023/11/02 08:52:32;;;;;;;4.60;0.70;;;;;;;19.24;54.10;97350.44;5025479;28;20381;-69
2023/11/02 08:54:59;;;;;;;3.15;0.70;;;;;;;19.29;54.35;97347.97;5024899;28;20466;-70
2023/11/02 08:57:25;;;;;;;4.38;0.60;;;;;;;19.34;54.21;97349.94;5024963;28;20037;-69
2023/11/02 08:59:50;;;;;;;3.00;0.60;;;;;;;19.35;53.98;97335.72;5026227;28;20029;-69
2023/11/02 09:02:15;;;;;;;2.75;0.70;;;;;;;19.36;53.66;97335.53;5026418;28;20083;-70
2023/11/02 09:04:40;;;;;;;3.95;0.77;;;;;;;19.38;53.41;97317.63;5025457;28;20463;-70
2023/11/02 09:07:06;;;;;;;2.47;0.60;;;;;;;19.42;53.27;97341.75;5025503;28;20048;-70
2023/11/02 09:09:31;;;;;;;3.40;0.57;;;;;;;19.40;52.84;97309.47;5022814;28;20302;-69
2023/11/02 09:11:57;;;;;;;2.30;0.68;;;;;;;19.39;53.03;97315.78;5019926;28;20195;-70
2023/11/02 09:14:22;;;;;;;6.57;0.70;;;;;;;19.31;53.18;97300.22;5024182;28;20477;-70
2023/11/02 09:16:48;;;;;;;3.38;0.60;;;;;;;19.30;53.08;97315.25;5022953;28;20052;-68
2023/11/02 09:19:13;;;;;;;5.53;0.80;;;;;;;19.25;53.36;97309.00;5024598;28;20481;-68
2023/11/02 09:21:39;;;;;;;2.25;0.88;;;;;;;19.24;53.29;97324.03;5023962;28;20033;-71
2023/11/02 09:24:05;;;;;;;4.47;1.02;;;;;;;19.27;53.21;97304.34;5024618;28;20033;-67
2023/11/02 09:26:31;;;;;;;3.50;0.70;;;;;;;19.26;53.21;97310.63;5025111;28;20817;-66
2023/11/02 09:28:57;;;;;;;3.60;0.70;;;;;;;19.21;53.48;97298.88;5025287;28;20053;-65
2023/11/02 09:31:27;;;;;;;4.05;0.90;;;;;;;19.19;53.47;97292.22;5023816;28;20454;-67
2023/11/02 09:33:53;;;;;;;5.43;0.80;;;;;;;19.18;53.38;97275.59;5024800;28;20045;-68
2023/11/02 09:36:18;;;;;;;3.97;0.93;;;;;;;19.16;53.34;97272.34;5024167;28;20029;-69
2023/11/02 09:38:43;;;;;;;3.15;0.90;;;;;;;19.15;53.57;97283.94;5025186;28;20034;-66
2023/11/02 09:41:09;;;;;;;2.22;0.70;;;;;;;19.16;53.45;97243.28;5027091;28;20030;-67
2023/11/02 09:43:35;;;;;;;2.97;0.60;;;;;;;19.28;53.08;97293.56;5028887;28;20381;-67
2023/11/02 09:46:01;;;;;;;4.28;0.80;;;;;;;19.29;53.01;97268.75;5028965;28;20083;-68
2023/11/02 09:48:27;;;;;;;5.43;0.90;;;;;;;19.23;53.12;97274.91;5027567;28;20045;-68
2023/11/02 09:50:52;;;;;;;3.80;0.68;;;;;;;19.20;52.98;97313.13;5028586;28;20029;-67
2023/11/02 09:53:18;;;;;;;3.50;0.90;;;;;;;19.16;53.15;97304.00;5028352;28;20049;-67
2023/11/02 09:55:45;;;;;;;3.53;0.73;;;;;;;19.17;52.92;97291.63;5031203;28;20017;-66
2023/11/02 09:58:10;;;;;;;3.35;0.68;;;;;;;19.15;53.27;97288.38;5028652;28;20112;-68
2023/11/02 10:00:36;;;;;;;4.38;0.75;;;;;;;19.16;52.82;97296.09;5028545;28;20136;-68
2023/11/02 10:03:02;;;;;;;3.00;0.70;;;;;;;19.19;53.02;97294.84;5028037;28;20041;-68
2023/11/02 10:05:28;;;;;;;5.57;1.02;;;;;;;19.18;52.88;97269.47;5029079;28;20041;-66
2023/11/02 10:07:54;;;;;;;2.33;0.70;;;;;;;19.19;52.60;97269.25;5028533;28;20499;-67
2023/11/02 10:10:21;;;;;;;3.70;0.70;;;;;;;19.18;52.85;97262.38;5028340;28;20044;-66
2023/11/02 10:12:46;;;;;;;4.82;0.80;;;;;;;19.19;53.00;97294.84;5027982;28;20432;-65
2023/11/02 10:15:16;;;;;;;4.80;0.80;;;;;;;19.20;52.82;97276.16;5028087;28;20057;-66
2023/11/02 10:17:42;;;;;;;2.97;0.70;;;;;;;19.19;52.80;97295.66;5028092;28;20025;-64
2023/11/02 10:20:11;;;;;;;3.15;0.77;;;;;;;19.21;52.67;97293.59;5028032;28;20040;-66
2023/11/02 10:22:37;;;;;;;3.90;0.80;;;;;;;19.26;52.35;97269.19;5027754;28;20060;-67
2023/11/02 10:25:06;;;;;;;4.38;0.88;;;;;;;19.24;52.58;97265.16;5028439;28;20014;-68
2023/11/02 10:27:32;;;;;;;5.55;0.80;;;;;;;19.23;52.25;97258.28;5028143;28;20433;-69
2023/11/02 10:29:58;;;;;;;3.83;0.75;;;;;;;19.21;52.45;97253.19;5027960;28;20034;-68
2023/11/02 10:32:23;;;;;;;4.13;0.95;;;;;;;19.23;52.10;97271.47;5028132;28;20046;-69
2023/11/02 10:34:52;;;;;;;4.28;0.90;;;;;;;19.19;52.06;97274.53;5027320;28;20049;-72
2023/11/02 10:37:36;;;;;;;4.20;0.80;;;;;;;19.18;52.20;97241.28;5027800;28;20083;-70
2023/11/02 10:40:02;;;;;;;5.32;0.82;;;;;;;19.22;52.14;97260.09;5028191;28;20044;-69
2023/11/02 10:42:28;;;;;;;4.60;0.95;;;;;;;19.19;52.19;97271.91;5025169;28;20041;-68
2023/11/02 10:44:54;;;;;;;4.82;0.90;;;;;;;19.19;51.54;97244.72;5027577;28;20064;-66
2023/11/02 10:47:32;;;;;;;3.70;0.77;;;;;;;19.18;51.95;97251.81;5027446;28;20048;-65
2023/11/02 10:49:59;;;;;;;2.83;0.88;;;;;;;19.21;51.96;97218.88;5028326;28;20028;-68
2023/11/02 10:52:53;;;;;;;4.60;1.00;;;;;;;19.19;52.22;97245.50;5026850;28;20033;-68
2023/11/02 10:55:25;;;;;;;4.00;0.60;;;;;;;19.20;52.31;97241.84;5019988;28;20049;-65
2023/11/02 10:57:52;;;;;;;4.03;0.85;;;;;;;19.26;52.04;97250.72;5027189;28;21285;-67
2023/11/02 11:00:21;;;;;;;6.15;1.05;;;;;;;19.36;51.75;97252.88;5027763;28;20707;-69
2023/11/02 11:02:47;;;;;;;5.00;0.70;;;;;;;19.33;51.84;97219.78;5027655;28;20025;-66
2023/11/02 11:05:15;;;;;;;4.60;0.90;;;;;;;19.27;51.96;97236.50;5028027;28;20036;-69
2023/11/02 11:07:42;;;;;;;7.28;1.23;;;;;;;19.27;51.95;97243.63;5026606;28;20072;-67
2023/11/02 11:10:14;;;;;;;3.22;0.80;;;;;;;19.25;52.22;97222.72;5026961;28;20121;-66
2023/11/02 11:12:40;;;;;;;5.10;0.90;;;;;;;19.24;52.15;97228.22;5027250;28;20045;-66
2023/11/02 11:15:12;;;;;;;4.45;0.80;;;;;;;19.21;52.10;97227.59;5026492;28;20580;-67
2023/11/02 11:17:43;;;;;;;2.47;0.70;;;;;;;19.24;52.16;97241.41;5026830;28;20474;-67
2023/11/02 11:20:09;;;;;;;2.95;0.70;;;;;;;19.23;51.99;97232.66;5025154;28;20048;-66
2023/11/02 11:22:37;;;;;;;3.50;0.80;;;;;;;19.26;51.78;97234.88;5026485;28;20052;-69
2023/11/02 11:25:04;;;;;;;4.13;0.98;;;;;;;19.23;51.81;97234.50;5027382;28;20546;-71
2023/11/02 11:27:33;;;;;;;3.67;0.70;;;;;;;19.33;51.63;97272.59;5026094;28;20026;-69
2023/11/02 11:30:00;;;;;;;4.03;0.90;;;;;;;19.40;51.42;97264.59;5008751;28;20386;-69
2023/11/02 11:32:25;;;;;;;3.85;0.88;;;;;;;19.45;50.92;97277.94;5027359;28;20021;-69
2023/11/02 11:34:53;;;;;;;4.78;1.13;;;;;;;19.41;51.33;97263.56;5027251;28;20099;-66
2023/11/02 11:37:50;;;;;;;4.15;1.10;;;;;;;19.44;51.29;97264.94;5027318;28;20106;-69
2023/11/02 11:40:21;;;;;;;5.32;1.42;;;;;;;19.45;51.37;97240.97;5026836;28;20037;-69
2023/11/02 11:42:56;;;;;;;5.70;1.50;;;;;;;19.46;51.34;97237.31;5027141;28;20551;-66
2023/11/02 11:45:36;;;;;;;5.05;1.52;;;;;;;19.47;51.28;97211.69;5026934;28;20087;-66